Coles Creek, Mississippi
Current Conditions -  °F | °C
As of 4:55 AM on Sunday 23 Nov 2014 (Local Time) from KGNF Reporting Station
Light Rain Light Rain  
Wind Chill: 55°   Ceiling: 600
Heat Index: 55°   Visibility: 2.5mi
Dew Point: 55°   Wind: 9mph
Humidity: 100%   Direction: 100°E
Pressure: 29.8"   Gusts: NA
Location:  33.8668°N, 89.456°W
Report Text: KGNF 231055Z AUTO 10008KT 2 1/2SM -RA SCT002 OVC006 13/13 A2980 RMK AO2
Loading
Personal Weather Stations






























Interactive Weather Map New forecast layout! Learn more

10-Day Weather Forecast

Advertisements
Track Severe Weather on mobile